Jane A. Bouchard — WDB4391 — position and weather

sailwx.info

Track history (hours):
 
Tides and Currents Weather Stations Pressure Air Temp Water Temp Dewpoint Dewpoint Depression Visibility Wind Speed Wind Dir Waves Ship Positions

Jane A. Bouchard

Owner: TUG JANE A BOUCHARD, MELVILLE, NY. More information available from US FCC via Universal Licensing System and Coast Guard Vessel Documentation Center.

Last reported at 2018-Feb-24 05:30 UTC. Time now 2018-Feb-24 06:50 UTC.
Position N 40°30' W 074°09'.

Length 163 m; draft 7 m.

Type: Towing. MMSI: 366897920.

Date/timePositionNaut miles runAvg speedWind from/ knotsBaromVisibWave heightAir tempDewpointWater temp
2018-Feb-24 05:30N 40°30' W 074°09'4 8.7
2018-Feb-24 04:59N 40°29' W 074°03'4 8.5
2018-Feb-24 04:30N 40°28' W 073°58'5 9.4
2018-Feb-24 04:00N 40°27' W 073°52'5 9.6
2018-Feb-24 03:26N 40°28' W 073°45'15410.5
2018-Feb-23 12:49N 41°37' W 070°42'37 9.4
2018-Feb-23 08:50N 42°11' W 070°23'310.7
2018-Feb-23 08:30N 42°15' W 070°23'611.3
2018-Feb-23 08:00N 42°20' W 070°21'611.3
2018-Feb-23 07:30N 42°26' W 070°20'611.2
2018-Feb-23 07:00N 42°31' W 070°19'511.0
2018-Feb-23 06:30N 42°37' W 070°18'611.0
2018-Feb-23 06:00N 42°42' W 070°17'511.0
2018-Feb-23 05:31N 42°48' W 070°16'510.9
2018-Feb-23 05:01N 42°53' W 070°15'611.0
2018-Feb-23 04:29N 42°59' W 070°13'7 0.2
2018-Feb-21 15:36N 43°04' W 070°19'110.6
2018-Feb-21 15:29N 43°03' W 070°19'510.6
2018-Feb-21 15:00N 42°58' W 070°22'510.7
2018-Feb-21 14:30N 42°53' W 070°24'510.5
2018-Feb-21 14:01N 42°48' W 070°27'510.6
2018-Feb-21 13:30N 42°43' W 070°29'510.7
2018-Feb-21 13:00N 42°38' W 070°31'510.3
2018-Feb-21 12:31N 42°34' W 070°35'511.0
2018-Feb-21 12:01N 42°31' W 070°41'511.0
2018-Feb-21 11:31N 42°27' W 070°46'510.9
2018-Feb-21 11:01N 42°23' W 070°52'510.8
2018-Feb-21 10:31N 42°20' W 070°58'4 8.4
2018-Feb-21 10:00N 42°22' W 071°03'2 3.5
2018-Feb-21 09:31N 42°23' W 071°01'0 0.5
2018-Feb-21 08:59N 42°24' W 071°01'0 0.0
2018-Feb-21 08:30N 42°24' W 071°01'0 0.0
2018-Feb-21 01:51N 42°24' W 071°01'0 0.0
2018-Feb-21 01:30N 42°24' W 071°01'0 0.0
2018-Feb-21 00:57N 42°24' W 071°01'0 0.0
2018-Feb-21 00:30N 42°24' W 071°01'0 0.1
2018-Feb-21 00:01N 42°24' W 071°01'2 3.2
2018-Feb-20 23:30N 42°23' W 071°03'4 7.3
2018-Feb-20 23:00N 42°20' W 070°59'4 8.5
2018-Feb-20 22:31N 42°22' W 070°55'5 9.9
2018-Feb-20 22:01N 42°23' W 070°48'510.5
2018-Feb-20 21:31N 42°19' W 070°43'510.5
2018-Feb-20 21:00N 42°15' W 070°38'510.6
2018-Feb-20 20:30N 42°11' W 070°33'173 6.4
2018-Feb-19 17:24N 40°31' W 073°41'4 9.5
2018-Feb-19 17:00N 40°30' W 073°46'5 9.6
2018-Feb-19 16:29N 40°29' W 073°52'5 9.5
2018-Feb-19 15:59N 40°31' W 073°58'4 9.2
2018-Feb-19 15:30N 40°34' W 074°02'5 9.4
2018-Feb-19 15:00N 40°39' W 074°04'4 8.4
2018-Feb-19 14:29N 40°39' W 074°10'3 6.7
2018-Feb-19 14:00N 40°36' W 074°12'1 2.0
2018-Feb-19 13:30N 40°35' W 074°13'0 0.0
2018-Feb-19 07:26N 40°35' W 074°12'0 0.0
2018-Feb-19 06:26N 40°35' W 074°12'0 0.0
2018-Feb-19 05:50N 40°35' W 074°12'0 0.0
2018-Feb-19 00:58N 40°35' W 074°12'0 0.0
2018-Feb-19 00:21N 40°35' W 074°12'0 0.0
2018-Feb-18 23:57N 40°35' W 074°12'0 0.0
2018-Feb-18 23:27N 40°35' W 074°12'0 0.0
2018-Feb-18 22:51N 40°35' W 074°12'0 0.0
2018-Feb-18 22:15N 40°35' W 074°12'0 0.0
2018-Feb-18 22:00N 40°35' W 074°12'0 0.0
2018-Feb-18 21:09N 40°35' W 074°12'0 0.0
2018-Feb-18 20:57N 40°35' W 074°12'0 0.0
2018-Feb-18 20:21N 40°35' W 074°12'0 0.0
2018-Feb-18 19:57N 40°35' W 074°12'0 0.0
2018-Feb-18 19:26N 40°35' W 074°12'0 0.0
2018-Feb-18 18:57N 40°35' W 074°12'2 5.3
2018-Feb-18 18:30N 40°38' W 074°12'4 7.8
2018-Feb-18 18:00N 40°39' W 074°07'3 6.6
2018-Feb-18 17:29N 40°39' W 074°03'3 6.2
2018-Feb-18 16:58N 40°39' W 074°07'0 0.0
2018-Feb-18 16:28N 40°39' W 074°07'0 0.0
2018-Feb-18 15:58N 40°39' W 074°07'0 0.0
2018-Feb-18 15:28N 40°39' W 074°07'0 0.0
2018-Feb-18 14:58N 40°39' W 074°07'0 0.2
2018-Feb-18 14:30N 40°39' W 074°07'4 7.2
2018-Feb-18 14:00N 40°38' W 074°12'3 5.7
2018-Feb-18 13:27N 40°35' W 074°13'0 0.0
2018-Feb-18 12:57N 40°35' W 074°13'0 0.8
2018-Feb-18 12:30N 40°36' W 074°12'2 4.5
2018-Feb-18 12:00N 40°38' W 074°12'2 4.3
2018-Feb-18 11:30N 40°39' W 074°10'3 6.6
2018-Feb-18 11:00N 40°39' W 074°05'4 7.6
2018-Feb-18 10:30N 40°41' W 074°01'5 9.3
2018-Feb-18 10:00N 40°45' W 073°58'4 7.7
2018-Feb-18 09:30N 40°48' W 073°54'2 4.9
2018-Feb-18 09:00N 40°48' W 073°51'3 6.1
2018-Feb-18 08:29N 40°48' W 073°47'3 5.1
2018-Feb-18 07:59N 40°51' W 073°46'3 5.5
2018-Feb-18 07:29N 40°53' W 073°43'3 5.3
2018-Feb-18 06:58N 40°54' W 073°40'3 5.9
2018-Feb-18 06:29N 40°55' W 073°37'37 7.5
2018-Feb-18 01:29N 41°05' W 072°49'611.6
2018-Feb-18 01:00N 41°06' W 072°42'611.4
2018-Feb-18 00:30N 41°08' W 072°35'611.6
2018-Feb-18 00:00N 41°09' W 072°27'510.5
2018-Feb-17 23:30N 41°11' W 072°21'5 9.7
2018-Feb-17 23:00N 41°13' W 072°14'5 9.2
2018-Feb-17 22:30N 41°14' W 072°09'92 8.8
2018-Feb-17 11:57N 42°06' W 070°27'4 9.8
2018-Feb-17 11:30N 42°11' W 070°26'510.3
2018-Feb-17 11:00N 42°16' W 070°26'511.0
2018-Feb-17 10:30N 42°21' W 070°26'511.0
2018-Feb-17 10:00N 42°27' W 070°25'611.1
2018-Feb-17 09:30N 42°32' W 070°25'611.3
2018-Feb-17 09:00N 42°38' W 070°24'611.3
2018-Feb-17 08:30N 42°43' W 070°22'511.1
2018-Feb-17 08:00N 42°49' W 070°20'611.2
2018-Feb-17 07:30N 42°54' W 070°19'611.2
2018-Feb-17 07:00N 42°60' W 070°17'8 0.2
2018-Feb-15 21:02N 43°07' W 070°14'510.8
2018-Feb-15 20:35N 43°03' W 070°16'110.8
2018-Feb-15 20:30N 43°02' W 070°16'510.9
2018-Feb-15 20:00N 42°56' W 070°18'510.9
2018-Feb-15 19:30N 42°51' W 070°20'511.0
2018-Feb-15 19:01N 42°46' W 070°21'510.7
2018-Feb-15 18:30N 42°41' W 070°23'510.6
2018-Feb-15 18:00N 42°35' W 070°24'510.9
2018-Feb-15 17:30N 42°30' W 070°25'510.8
2018-Feb-15 17:00N 42°25' W 070°25'610.9
2018-Feb-15 16:30N 42°19' W 070°26'510.9
2018-Feb-15 16:00N 42°14' W 070°26'95 8.4
2018-Feb-15 04:44N 41°14' W 072°05'311.1
2018-Feb-15 04:29N 41°14' W 072°08'510.9
2018-Feb-15 04:00N 41°13' W 072°15'510.8
2018-Feb-15 03:30N 41°11' W 072°22'510.1
2018-Feb-15 03:00N 41°10' W 072°28'5 9.8
2018-Feb-15 02:30N 41°09' W 072°35'5 9.9
2018-Feb-15 02:00N 41°10' W 072°41'510.0
2018-Feb-15 01:30N 41°11' W 072°48'5 0.3
2018-Feb-14 06:59N 41°12' W 072°54'  
Track history (hours):
 
Tides and Currents Weather Stations Pressure Air Temp Water Temp Dewpoint Dewpoint Depression Visibility Wind Speed Wind Dir Waves Ship Positions

Jane A. Bouchard

Owner: TUG JANE A BOUCHARD, MELVILLE, NY. More information available from US FCC via Universal Licensing System and Coast Guard Vessel Documentation Center.

Last reported at 2018-Feb-24 05:30 UTC. Time now 2018-Feb-24 06:50 UTC.
Position N 40°30' W 074°09'.

Length 163 m; draft 7 m.

Type: Towing. MMSI: 366897920.

Date/timePositionNaut miles runAvg speedWind from/ knotsBaromVisibWave heightAir tempDewpointWater temp
2018-Feb-24 05:30N 40°30' W 074°09'4 8.7
2018-Feb-24 04:59N 40°29' W 074°03'4 8.5
2018-Feb-24 04:30N 40°28' W 073°58'5 9.4
2018-Feb-24 04:00N 40°27' W 073°52'5 9.6
2018-Feb-24 03:26N 40°28' W 073°45'15410.5
2018-Feb-23 12:49N 41°37' W 070°42'37 9.4
2018-Feb-23 08:50N 42°11' W 070°23'310.7
2018-Feb-23 08:30N 42°15' W 070°23'611.3
2018-Feb-23 08:00N 42°20' W 070°21'611.3
2018-Feb-23 07:30N 42°26' W 070°20'611.2
2018-Feb-23 07:00N 42°31' W 070°19'511.0
2018-Feb-23 06:30N 42°37' W 070°18'611.0
2018-Feb-23 06:00N 42°42' W 070°17'511.0
2018-Feb-23 05:31N 42°48' W 070°16'510.9
2018-Feb-23 05:01N 42°53' W 070°15'611.0
2018-Feb-23 04:29N 42°59' W 070°13'7 0.2
2018-Feb-21 15:36N 43°04' W 070°19'110.6
2018-Feb-21 15:29N 43°03' W 070°19'510.6
2018-Feb-21 15:00N 42°58' W 070°22'510.7
2018-Feb-21 14:30N 42°53' W 070°24'510.5
2018-Feb-21 14:01N 42°48' W 070°27'510.6
2018-Feb-21 13:30N 42°43' W 070°29'510.7
2018-Feb-21 13:00N 42°38' W 070°31'510.3
2018-Feb-21 12:31N 42°34' W 070°35'511.0
2018-Feb-21 12:01N 42°31' W 070°41'511.0
2018-Feb-21 11:31N 42°27' W 070°46'510.9
2018-Feb-21 11:01N 42°23' W 070°52'510.8
2018-Feb-21 10:31N 42°20' W 070°58'4 8.4
2018-Feb-21 10:00N 42°22' W 071°03'2 3.5
2018-Feb-21 09:31N 42°23' W 071°01'0 0.5
2018-Feb-21 08:59N 42°24' W 071°01'0 0.0
2018-Feb-21 08:30N 42°24' W 071°01'0 0.0
2018-Feb-21 01:51N 42°24' W 071°01'0 0.0
2018-Feb-21 01:30N 42°24' W 071°01'0 0.0
2018-Feb-21 00:57N 42°24' W 071°01'0 0.0
2018-Feb-21 00:30N 42°24' W 071°01'0 0.1
2018-Feb-21 00:01N 42°24' W 071°01'2 3.2
2018-Feb-20 23:30N 42°23' W 071°03'4 7.3
2018-Feb-20 23:00N 42°20' W 070°59'4 8.5
2018-Feb-20 22:31N 42°22' W 070°55'5 9.9
2018-Feb-20 22:01N 42°23' W 070°48'510.5
2018-Feb-20 21:31N 42°19' W 070°43'510.5
2018-Feb-20 21:00N 42°15' W 070°38'510.6
2018-Feb-20 20:30N 42°11' W 070°33'173 6.4
2018-Feb-19 17:24N 40°31' W 073°41'4 9.5
2018-Feb-19 17:00N 40°30' W 073°46'5 9.6
2018-Feb-19 16:29N 40°29' W 073°52'5 9.5
2018-Feb-19 15:59N 40°31' W 073°58'4 9.2
2018-Feb-19 15:30N 40°34' W 074°02'5 9.4
2018-Feb-19 15:00N 40°39' W 074°04'4 8.4
2018-Feb-19 14:29N 40°39' W 074°10'3 6.7
2018-Feb-19 14:00N 40°36' W 074°12'1 2.0
2018-Feb-19 13:30N 40°35' W 074°13'0 0.0
2018-Feb-19 07:26N 40°35' W 074°12'0 0.0
2018-Feb-19 06:26N 40°35' W 074°12'0 0.0
2018-Feb-19 05:50N 40°35' W 074°12'0 0.0
2018-Feb-19 00:58N 40°35' W 074°12'0 0.0
2018-Feb-19 00:21N 40°35' W 074°12'0 0.0
2018-Feb-18 23:57N 40°35' W 074°12'0 0.0
2018-Feb-18 23:27N 40°35' W 074°12'0 0.0
2018-Feb-18 22:51N 40°35' W 074°12'0 0.0
2018-Feb-18 22:15N 40°35' W 074°12'0 0.0
2018-Feb-18 22:00N 40°35' W 074°12'0 0.0
2018-Feb-18 21:09N 40°35' W 074°12'0 0.0
2018-Feb-18 20:57N 40°35' W 074°12'0 0.0
2018-Feb-18 20:21N 40°35' W 074°12'0 0.0
2018-Feb-18 19:57N 40°35' W 074°12'0 0.0
2018-Feb-18 19:26N 40°35' W 074°12'0 0.0
2018-Feb-18 18:57N 40°35' W 074°12'2 5.3
2018-Feb-18 18:30N 40°38' W 074°12'4 7.8
2018-Feb-18 18:00N 40°39' W 074°07'3 6.6
2018-Feb-18 17:29N 40°39' W 074°03'3 6.2
2018-Feb-18 16:58N 40°39' W 074°07'0 0.0
2018-Feb-18 16:28N 40°39' W 074°07'0 0.0
2018-Feb-18 15:58N 40°39' W 074°07'0 0.0
2018-Feb-18 15:28N 40°39' W 074°07'0 0.0
2018-Feb-18 14:58N 40°39' W 074°07'0 0.2
2018-Feb-18 14:30N 40°39' W 074°07'4 7.2
2018-Feb-18 14:00N 40°38' W 074°12'3 5.7
2018-Feb-18 13:27N 40°35' W 074°13'0 0.0
2018-Feb-18 12:57N 40°35' W 074°13'0 0.8
2018-Feb-18 12:30N 40°36' W 074°12'2 4.5
2018-Feb-18 12:00N 40°38' W 074°12'2 4.3
2018-Feb-18 11:30N 40°39' W 074°10'3 6.6
2018-Feb-18 11:00N 40°39' W 074°05'4 7.6
2018-Feb-18 10:30N 40°41' W 074°01'5 9.3
2018-Feb-18 10:00N 40°45' W 073°58'4 7.7
2018-Feb-18 09:30N 40°48' W 073°54'2 4.9
2018-Feb-18 09:00N 40°48' W 073°51'3 6.1
2018-Feb-18 08:29N 40°48' W 073°47'3 5.1
2018-Feb-18 07:59N 40°51' W 073°46'3 5.5
2018-Feb-18 07:29N 40°53' W 073°43'3 5.3
2018-Feb-18 06:58N 40°54' W 073°40'3 5.9
2018-Feb-18 06:29N 40°55' W 073°37'37 7.5
2018-Feb-18 01:29N 41°05' W 072°49'611.6
2018-Feb-18 01:00N 41°06' W 072°42'611.4
2018-Feb-18 00:30N 41°08' W 072°35'611.6
2018-Feb-18 00:00N 41°09' W 072°27'510.5
2018-Feb-17 23:30N 41°11' W 072°21'5 9.7
2018-Feb-17 23:00N 41°13' W 072°14'5 9.2
2018-Feb-17 22:30N 41°14' W 072°09'92 8.8
2018-Feb-17 11:57N 42°06' W 070°27'4 9.8
2018-Feb-17 11:30N 42°11' W 070°26'510.3
2018-Feb-17 11:00N 42°16' W 070°26'511.0
2018-Feb-17 10:30N 42°21' W 070°26'511.0
2018-Feb-17 10:00N 42°27' W 070°25'611.1
2018-Feb-17 09:30N 42°32' W 070°25'611.3
2018-Feb-17 09:00N 42°38' W 070°24'611.3
2018-Feb-17 08:30N 42°43' W 070°22'511.1
2018-Feb-17 08:00N 42°49' W 070°20'611.2
2018-Feb-17 07:30N 42°54' W 070°19'611.2
2018-Feb-17 07:00N 42°60' W 070°17'8 0.2
2018-Feb-15 21:02N 43°07' W 070°14'510.8
2018-Feb-15 20:35N 43°03' W 070°16'110.8
2018-Feb-15 20:30N 43°02' W 070°16'510.9
2018-Feb-15 20:00N 42°56' W 070°18'510.9
2018-Feb-15 19:30N 42°51' W 070°20'511.0
2018-Feb-15 19:01N 42°46' W 070°21'510.7
2018-Feb-15 18:30N 42°41' W 070°23'510.6
2018-Feb-15 18:00N 42°35' W 070°24'510.9
2018-Feb-15 17:30N 42°30' W 070°25'510.8
2018-Feb-15 17:00N 42°25' W 070°25'610.9
2018-Feb-15 16:30N 42°19' W 070°26'510.9
2018-Feb-15 16:00N 42°14' W 070°26'95 8.4
2018-Feb-15 04:44N 41°14' W 072°05'311.1
2018-Feb-15 04:29N 41°14' W 072°08'510.9
2018-Feb-15 04:00N 41°13' W 072°15'510.8
2018-Feb-15 03:30N 41°11' W 072°22'510.1
2018-Feb-15 03:00N 41°10' W 072°28'5 9.8
2018-Feb-15 02:30N 41°09' W 072°35'5 9.9
2018-Feb-15 02:00N 41°10' W 072°41'510.0
2018-Feb-15 01:30N 41°11' W 072°48'5 0.3
2018-Feb-14 06:59N 41°12' W 072°54'  

Dump ship's entire track history